createdAt,value
2019-05-03T00:02:05.211Z,4.70
2019-05-03T00:04:08.563Z,4.97
2019-05-03T00:06:12.059Z,5.20
2019-05-03T00:08:13.743Z,4.77
2019-05-03T00:10:16.302Z,4.53
2019-05-03T00:12:18.856Z,5.20
2019-05-03T00:14:21.774Z,5.60
2019-05-03T00:16:24.014Z,5.10
2019-05-03T00:18:26.610Z,4.73
2019-05-03T00:20:29.388Z,5.40
2019-05-03T00:22:32.331Z,4.43
2019-05-03T00:24:34.491Z,3.93
2019-05-03T00:26:37.129Z,5.33
2019-05-03T00:28:39.784Z,4.10
2019-05-03T00:30:42.398Z,4.03
2019-05-03T00:32:44.904Z,4.50
2019-05-03T00:34:47.963Z,4.50
2019-05-03T00:36:53.802Z,4.70
2019-05-03T00:38:56.474Z,4.67
2019-05-03T00:40:59.138Z,4.90
2019-05-03T00:43:02.301Z,4.40
2019-05-03T00:45:06.141Z,4.33
2019-05-03T00:47:08.682Z,3.90
2019-05-03T00:49:12.000Z,4.33
2019-05-03T00:51:14.715Z,5.00
2019-05-03T00:53:17.327Z,4.40
2019-05-03T00:55:21.889Z,4.37
2019-05-03T00:57:22.819Z,4.77
2019-05-03T00:59:25.042Z,4.40
2019-05-03T01:01:28.536Z,3.43
2019-05-03T01:03:32.601Z,4.17
2019-05-03T01:05:33.697Z,3.90
2019-05-03T01:07:36.261Z,4.33
2019-05-03T01:09:38.831Z,4.23
2019-05-03T01:11:41.824Z,3.83
2019-05-03T01:13:43.984Z,4.00
2019-05-03T01:15:52.456Z,3.90
2019-05-03T01:17:55.007Z,4.17
2019-05-03T01:19:58.492Z,4.70
2019-05-03T01:22:01.950Z,3.97
2019-05-03T01:24:03.603Z,4.10
2019-05-03T01:26:06.214Z,4.50
2019-05-03T01:28:08.750Z,4.07
2019-05-03T01:30:11.937Z,4.90
2019-05-03T01:32:13.998Z,4.40
2019-05-03T01:34:17.403Z,4.50
2019-05-03T01:36:19.944Z,3.87
2019-05-03T01:38:22.763Z,5.43
2019-05-03T01:40:25.182Z,5.63
2019-05-03T01:42:28.148Z,5.47
2019-05-03T01:44:32.671Z,5.10
2019-05-03T01:46:34.362Z,4.80
2019-05-03T01:48:52.190Z,5.53
2019-05-03T01:50:55.274Z,5.07
2019-05-03T01:52:57.826Z,4.87
2019-05-03T01:55:00.430Z,4.57
2019-05-03T01:57:03.110Z,5.47
2019-05-03T01:59:05.920Z,5.70
2019-05-03T02:01:10.287Z,7.00
2019-05-03T02:03:27.861Z,6.37
2019-05-03T02:05:36.988Z,6.23
2019-05-03T02:07:39.510Z,6.30
2019-05-03T02:09:42.103Z,7.40
2019-05-03T02:11:45.030Z,6.23
2019-05-03T02:13:48.787Z,5.37
2019-05-03T02:15:52.714Z,6.40
2019-05-03T02:17:53.911Z,5.33
2019-05-03T02:19:56.719Z,5.10
2019-05-03T02:21:59.255Z,6.03
2019-05-03T02:24:02.592Z,4.40
2019-05-03T02:26:04.511Z,5.17
2019-05-03T02:28:07.109Z,4.63
2019-05-03T02:30:09.644Z,4.67
2019-05-03T02:32:13.326Z,5.20
2019-05-03T02:34:14.923Z,4.97
2019-05-03T02:36:17.495Z,5.60
2019-05-03T02:38:20.236Z,4.90
2019-05-03T02:40:24.616Z,5.37
2019-05-03T02:42:26.481Z,5.10
2019-05-03T02:44:28.090Z,5.47
2019-05-03T02:46:36.424Z,4.93
2019-05-03T02:48:45.760Z,4.60
2019-05-03T02:50:45.980Z,5.43
2019-05-03T02:52:48.548Z,5.17
2019-05-03T02:54:51.738Z,4.87
2019-05-03T02:56:55.967Z,4.97
2019-05-03T02:58:56.989Z,5.47
2019-05-03T03:01:00.305Z,4.57
2019-05-03T03:03:05.517Z,4.77
2019-05-03T03:05:06.198Z,4.73
2019-05-03T03:07:08.904Z,4.20
2019-05-03T03:09:11.483Z,4.37
2019-05-03T03:11:15.547Z,4.53
2019-05-03T03:13:16.729Z,5.30
2019-05-03T03:15:19.398Z,4.53
2019-05-03T03:17:21.942Z,4.50
2019-05-03T03:19:26.166Z,4.50
2019-05-03T03:21:27.112Z,4.43
2019-05-03T03:23:29.910Z,4.90
2019-05-03T03:25:32.466Z,5.20
2019-05-03T03:27:36.135Z,5.30
2019-05-03T03:29:37.611Z,5.00
2019-05-03T03:31:59.687Z,5.20
2019-05-03T03:34:02.323Z,4.87
2019-05-03T03:36:31.814Z,5.30
2019-05-03T03:38:07.457Z,4.77
2019-05-03T03:40:10.143Z,5.30
2019-05-03T03:42:12.759Z,5.37
2019-05-03T03:44:15.421Z,5.30
2019-05-03T03:46:17.866Z,4.87
2019-05-03T03:48:20.423Z,5.30
2019-05-03T03:50:25.707Z,4.50
2019-05-03T03:52:25.672Z,5.03
2019-05-03T03:54:28.156Z,4.97
2019-05-03T03:56:31.553Z,5.17
2019-05-03T03:58:35.882Z,4.57
2019-05-03T04:00:37.699Z,4.80
2019-05-03T04:02:40.345Z,5.30
2019-05-03T04:04:45.039Z,5.80
2019-05-03T04:06:46.588Z,4.90
2019-05-03T04:08:48.304Z,5.20
2019-05-03T04:10:51.019Z,5.43
2019-05-03T04:12:55.751Z,5.20
2019-05-03T04:15:11.782Z,5.13
2019-05-03T04:17:26.459Z,5.00
2019-05-03T04:19:29.746Z,5.30
2019-05-03T04:21:35.743Z,4.83
2019-05-03T04:23:37.173Z,5.60
2019-05-03T04:25:39.711Z,4.63
2019-05-03T04:27:42.312Z,3.90
2019-05-03T04:29:45.466Z,5.50
2019-05-03T04:31:48.277Z,5.00
2019-05-03T04:33:50.861Z,4.73
2019-05-03T04:35:55.717Z,5.37
2019-05-03T04:37:56.266Z,4.73
2019-05-03T04:39:59.563Z,4.30
2019-05-03T04:42:02.187Z,4.30
2019-05-03T04:44:06.265Z,4.70
2019-05-03T04:46:07.359Z,5.37
2019-05-03T04:48:10.746Z,4.77
2019-05-03T04:50:16.065Z,4.97
2019-05-03T04:52:16.473Z,4.13
2019-05-03T04:54:36.988Z,4.70
2019-05-03T04:56:39.531Z,4.80
2019-05-03T04:58:42.152Z,4.70
2019-05-03T05:00:46.463Z,4.55
2019-05-03T05:02:47.368Z,5.23
2019-05-03T05:04:49.910Z,4.53
2019-05-03T05:06:52.532Z,4.50
2019-05-03T05:08:55.283Z,5.20
2019-05-03T05:10:57.778Z,5.70
2019-05-03T05:13:00.335Z,5.37
2019-05-03T05:15:05.132Z,4.83
2019-05-03T05:17:06.353Z,5.27
2019-05-03T05:19:09.155Z,5.17
2019-05-03T05:21:22.527Z,4.60
2019-05-03T05:23:25.244Z,4.70
2019-05-03T05:25:30.608Z,3.50
2019-05-03T05:27:49.486Z,4.27
2019-05-03T05:29:50.614Z,4.03
2019-05-03T05:31:54.777Z,5.20
2019-05-03T05:33:55.763Z,4.30
2019-05-03T05:35:58.940Z,4.17
2019-05-03T05:38:01.614Z,4.50
2019-05-03T05:40:05.291Z,4.73
2019-05-03T05:42:07.691Z,4.70
2019-05-03T05:44:10.264Z,4.97
2019-05-03T05:46:14.536Z,4.80
2019-05-03T05:48:15.444Z,4.67
2019-05-03T05:50:21.751Z,5.23
2019-05-03T05:52:24.635Z,5.70
2019-05-03T05:54:28.450Z,5.60
2019-05-03T05:56:46.779Z,5.60
2019-05-03T05:58:50.192Z,4.93
2019-05-03T06:00:57.734Z,5.73
2019-05-03T06:03:00.458Z,6.53
2019-05-03T06:05:04.747Z,6.20
2019-05-03T06:07:11.326Z,5.33
2019-05-03T06:09:16.886Z,4.80
2019-05-03T06:11:19.438Z,6.63
2019-05-03T06:13:23.192Z,6.00
2019-05-03T06:15:45.227Z,5.80
2019-05-03T06:17:49.215Z,6.03
2019-05-03T06:19:57.107Z,6.73
2019-05-03T06:22:05.089Z,5.87
2019-05-03T06:24:09.754Z,5.20
2019-05-03T06:26:17.974Z,5.73
2019-05-03T06:28:21.307Z,6.30
2019-05-03T06:30:24.910Z,5.20
2019-05-03T06:32:28.090Z,6.50
2019-05-03T06:34:30.746Z,5.87
2019-05-03T06:36:35.316Z,5.83
2019-05-03T06:38:35.923Z,7.60
2019-05-03T06:40:38.474Z,5.70
2019-05-03T06:42:51.544Z,7.73
2019-05-03T06:44:45.542Z,6.60
2019-05-03T06:46:47.728Z,7.30
2019-05-03T06:48:51.233Z,6.37
2019-05-03T06:50:55.687Z,6.80
2019-05-03T06:52:59.770Z,6.00
2019-05-03T06:55:00.475Z,6.00
2019-05-03T06:57:07.839Z,6.30
2019-05-03T06:59:05.218Z,6.67
2019-05-03T07:01:11.372Z,5.40
2019-05-03T07:03:18.590Z,4.63
2019-05-03T07:05:25.143Z,4.20
2019-05-03T07:07:29.375Z,5.30
2019-05-03T07:09:35.386Z,6.00
2019-05-03T07:11:37.266Z,6.07
2019-05-03T07:13:40.095Z,7.13
2019-05-03T07:15:42.634Z,6.57
2019-05-03T07:17:45.336Z,6.43
2019-05-03T07:19:47.894Z,6.70
2019-05-03T07:21:50.439Z,6.10
2019-05-03T07:23:55.031Z,6.30
2019-05-03T07:25:56.469Z,6.87
2019-05-03T07:27:59.979Z,6.27
2019-05-03T07:30:04.718Z,6.60
2019-05-03T07:32:05.871Z,7.33
2019-05-03T07:34:08.450Z,5.20
2019-05-03T07:36:11.579Z,7.30
2019-05-03T07:38:15.547Z,6.50
2019-05-03T07:40:17.502Z,6.50
2019-05-03T07:42:20.790Z,6.80
2019-05-03T07:44:25.417Z,6.90
2019-05-03T07:46:26.151Z,6.97
2019-05-03T07:48:28.708Z,6.30
2019-05-03T07:50:33.186Z,7.00
2019-05-03T07:52:34.823Z,6.10
2019-05-03T07:54:36.855Z,6.97
2019-05-03T07:56:40.349Z,6.80
2019-05-03T07:58:44.948Z,7.50
2019-05-03T08:00:45.479Z,7.40
2019-05-03T08:02:48.063Z,7.33
2019-05-03T08:04:50.614Z,7.20
2019-05-03T08:06:54.909Z,7.60
2019-05-03T08:08:56.348Z,6.93
2019-05-03T08:10:59.780Z,7.63
2019-05-03T08:13:04.525Z,7.60
2019-05-03T08:15:05.361Z,6.40
2019-05-03T08:17:07.506Z,5.87
2019-05-03T08:19:10.080Z,5.97
2019-05-03T08:21:14.561Z,5.83
2019-05-03T08:23:26.806Z,6.57
2019-05-03T08:25:17.803Z,6.20
2019-05-03T08:27:20.358Z,6.23
2019-05-03T08:29:24.744Z,5.20
2019-05-03T08:31:26.628Z,5.60
2019-05-03T08:33:40.728Z,5.60
2019-05-03T08:35:44.788Z,5.60
2019-05-03T08:37:54.529Z,6.40
2019-05-03T08:39:55.236Z,4.60
2019-05-03T08:41:58.458Z,5.10
2019-05-03T08:44:02.054Z,5.30
2019-05-03T08:46:04.743Z,5.57
2019-05-03T08:48:07.175Z,5.13
2019-05-03T08:50:09.727Z,5.13
2019-05-03T08:52:15.538Z,4.70
2019-05-03T08:54:15.848Z,5.70
2019-05-03T08:56:18.421Z,5.87
2019-05-03T08:58:21.002Z,5.13
2019-05-03T09:00:24.902Z,5.27
2019-05-03T09:02:26.807Z,4.50
2019-05-03T09:04:37.470Z,3.87
2019-05-03T09:06:32.687Z,4.80
2019-05-03T09:08:35.519Z,5.10
2019-05-03T09:10:39.309Z,5.23
2019-05-03T09:12:47.475Z,5.03
2019-05-03T09:14:50.615Z,4.45
2019-05-03T09:16:55.413Z,4.40
2019-05-03T09:18:55.859Z,4.43
2019-05-03T09:20:58.399Z,4.33
2019-05-03T09:23:00.984Z,4.20
2019-05-03T09:25:04.973Z,4.80
2019-05-03T09:27:06.139Z,4.63
2019-05-03T09:29:08.889Z,3.33
2019-05-03T09:31:11.462Z,3.20
2019-05-03T09:33:15.399Z,4.67
2019-05-03T09:35:29.822Z,4.00
2019-05-03T09:37:19.927Z,3.30
2019-05-03T09:39:24.419Z,4.23
2019-05-03T09:41:25.803Z,3.87
2019-05-03T09:43:28.450Z,3.30
2019-05-03T09:45:31.119Z,3.30
2019-05-03T09:47:35.372Z,2.90
2019-05-03T09:49:36.597Z,3.00
2019-05-03T09:51:39.175Z,2.60
2019-05-03T09:53:47.526Z,2.80
2019-05-03T09:55:50.848Z,2.30
2019-05-03T09:57:55.536Z,2.90
2019-05-03T09:59:59.961Z,2.50
2019-05-03T10:01:59.399Z,2.10
2019-05-03T10:04:01.975Z,2.40
2019-05-03T10:06:04.544Z,3.00
2019-05-03T10:08:07.761Z,3.17
2019-05-03T10:10:10.299Z,3.13
2019-05-03T10:12:12.967Z,2.90
2019-05-03T10:14:15.721Z,3.00
2019-05-03T10:16:18.119Z,3.23
2019-05-03T10:18:20.836Z,3.87
2019-05-03T10:20:25.207Z,2.57
2019-05-03T10:22:26.008Z,3.60
2019-05-03T10:24:29.866Z,2.60
2019-05-03T10:26:32.425Z,2.80
2019-05-03T10:28:35.080Z,3.07
2019-05-03T10:30:37.698Z,3.13
2019-05-03T10:32:40.866Z,3.23
2019-05-03T10:34:43.419Z,3.20
2019-05-03T10:36:46.265Z,2.70
2019-05-03T10:38:48.800Z,2.53
2019-05-03T10:40:51.374Z,2.23
2019-05-03T10:42:55.254Z,2.07
2019-05-03T10:44:57.399Z,2.50
2019-05-03T10:46:59.963Z,2.47
2019-05-03T10:49:05.621Z,2.70
2019-05-03T10:51:07.497Z,2.47
2019-05-03T10:53:10.745Z,2.20
2019-05-03T10:55:15.963Z,1.60
2019-05-03T10:57:20.912Z,2.03
2019-05-03T10:59:25.029Z,2.17
2019-05-03T11:01:45.691Z,2.07
2019-05-03T11:03:48.226Z,1.90
2019-05-03T11:05:51.057Z,2.07
2019-05-03T11:07:55.536Z,2.27
2019-05-03T11:09:56.611Z,2.00
2019-05-03T11:11:59.142Z,2.37
2019-05-03T11:14:01.838Z,3.13
2019-05-03T11:16:05.579Z,2.37
2019-05-03T11:18:07.003Z,2.10
2019-05-03T11:20:09.596Z,2.17
2019-05-03T11:22:14.655Z,2.17
2019-05-03T11:24:17.771Z,1.83
2019-05-03T11:26:20.346Z,1.97
2019-05-03T11:28:24.945Z,2.37
2019-05-03T11:30:26.398Z,2.13
2019-05-03T11:32:36.774Z,1.77
2019-05-03T11:34:45.059Z,2.03
2019-05-03T11:36:49.579Z,1.83
2019-05-03T11:38:52.321Z,2.07
2019-05-03T11:40:55.993Z,1.80
2019-05-03T11:42:57.524Z,1.97
2019-05-03T11:45:00.112Z,2.20
2019-05-03T11:47:02.655Z,1.83
2019-05-03T11:49:05.673Z,2.10
2019-05-03T11:51:08.647Z,2.17
2019-05-03T11:53:11.186Z,1.90
2019-05-03T11:55:15.994Z,1.50
2019-05-03T11:57:23.991Z,2.13
2019-05-03T11:59:26.465Z,2.10
2019-05-03T12:01:28.043Z,2.00
2019-05-03T12:03:35.531Z,2.67
2019-05-03T12:05:37.295Z,2.30
2019-05-03T12:07:40.301Z,1.70
2019-05-03T12:09:42.591Z,1.60
2019-05-03T12:11:45.131Z,1.93
2019-05-03T12:13:47.745Z,1.73
2019-05-03T12:15:50.295Z,2.17
2019-05-03T12:17:57.913Z,2.03
2019-05-03T12:19:57.732Z,1.80
2019-05-03T12:21:59.685Z,2.27
2019-05-03T12:24:02.258Z,2.17
2019-05-03T12:26:09.446Z,1.70
2019-05-03T12:28:06.854Z,2.50
2019-05-03T12:30:09.408Z,1.50
2019-05-03T12:32:12.106Z,1.77
2019-05-03T12:34:15.970Z,1.60
2019-05-03T12:36:17.462Z,1.87
2019-05-03T12:38:20.019Z,1.80
2019-05-03T12:40:22.699Z,2.00
2019-05-03T12:42:25.635Z,2.30
2019-05-03T12:44:27.929Z,2.20
2019-05-03T12:46:30.504Z,2.67
2019-05-03T12:48:35.268Z,1.73
2019-05-03T12:50:35.663Z,2.10
2019-05-03T12:52:49.639Z,1.90
2019-05-03T12:54:41.075Z,2.00
2019-05-03T12:56:45.357Z,1.60
2019-05-03T12:58:51.914Z,1.97
2019-05-03T13:00:57.271Z,1.93
2019-05-03T13:03:00.592Z,2.00
2019-05-03T13:05:04.870Z,2.00
2019-05-03T13:07:08.405Z,1.80
2019-05-03T13:09:10.953Z,3.23
2019-05-03T13:11:14.406Z,2.30
2019-05-03T13:13:16.998Z,2.00
2019-05-03T13:15:19.564Z,1.90
2019-05-03T13:17:28.135Z,2.30
2019-05-03T13:19:31.470Z,1.90
2019-05-03T13:21:35.486Z,2.57
2019-05-03T13:23:36.616Z,2.27
2019-05-03T13:25:39.266Z,1.67
2019-05-03T13:27:41.850Z,1.83
2019-05-03T13:29:45.314Z,2.00
2019-05-03T13:31:58.346Z,2.00
2019-05-03T13:33:49.578Z,2.00
2019-05-03T13:35:52.255Z,2.10
2019-05-03T13:37:55.721Z,2.00
2019-05-03T13:39:58.047Z,1.93
2019-05-03T13:42:00.816Z,1.90
2019-05-03T13:44:05.138Z,2.03
2019-05-03T13:46:05.963Z,1.80
2019-05-03T13:48:10.087Z,2.00
2019-05-03T13:50:15.168Z,1.70
2019-05-03T13:52:15.987Z,1.53
2019-05-03T13:54:18.555Z,1.70
2019-05-03T13:56:21.404Z,2.00
2019-05-03T13:58:26.411Z,1.80
2019-05-03T14:00:27.534Z,1.50
2019-05-03T14:02:30.240Z,2.57
2019-05-03T14:04:35.759Z,1.60
2019-05-03T14:06:36.615Z,1.47
2019-05-03T14:08:39.708Z,1.47
2019-05-03T14:10:45.564Z,1.97
2019-05-03T14:12:47.175Z,1.87
2019-05-03T14:14:51.719Z,2.20
2019-05-03T14:16:54.768Z,2.10
2019-05-03T14:18:56.911Z,1.50
2019-05-03T14:21:02.188Z,1.50
2019-05-03T14:23:05.207Z,1.67
2019-05-03T14:25:08.655Z,1.77
2019-05-03T14:27:11.210Z,1.40
2019-05-03T14:29:14.964Z,1.50
2019-05-03T14:31:16.779Z,1.53
2019-05-03T14:33:19.331Z,1.33
2019-05-03T14:35:22.308Z,1.70
2019-05-03T14:37:25.022Z,1.70
2019-05-03T14:39:27.563Z,1.43
2019-05-03T14:41:30.119Z,1.67
2019-05-03T14:43:35.387Z,1.40
2019-05-03T14:45:36.647Z,1.43
2019-05-03T14:47:39.191Z,1.47
2019-05-03T14:49:41.802Z,1.70
2019-05-03T14:51:45.541Z,1.50
2019-05-03T14:53:46.923Z,1.37
2019-05-03T14:55:49.486Z,1.27
2019-05-03T14:58:06.968Z,1.40
2019-05-03T15:00:11.014Z,1.80
2019-05-03T15:02:19.394Z,1.97
2019-05-03T15:04:25.424Z,1.47
2019-05-03T15:06:25.884Z,1.33
2019-05-03T15:08:29.203Z,1.60
2019-05-03T15:10:31.758Z,1.47
2019-05-03T15:12:35.939Z,1.70
2019-05-03T15:14:37.860Z,1.60
2019-05-03T15:16:41.158Z,1.60
2019-05-03T15:18:45.392Z,1.20
2019-05-03T15:20:46.810Z,1.60
2019-05-03T15:22:49.387Z,1.27
2019-05-03T15:24:51.947Z,1.83
2019-05-03T15:26:55.372Z,1.40
2019-05-03T15:28:58.444Z,1.20
2019-05-03T15:31:01.008Z,1.10
2019-05-03T15:33:04.947Z,1.20
2019-05-03T15:35:06.119Z,1.20
2019-05-03T15:37:09.387Z,1.27
2019-05-03T15:39:13.051Z,1.50
2019-05-03T15:41:16.438Z,1.73
2019-05-03T15:43:28.452Z,1.80
2019-05-03T15:45:30.305Z,1.10
2019-05-03T15:47:33.713Z,1.47
2019-05-03T15:49:37.767Z,1.20
2019-05-03T15:51:40.376Z,1.60
2019-05-03T15:53:44.400Z,1.67
2019-05-03T15:55:45.610Z,1.20
2019-05-03T15:57:48.235Z,1.10
2019-05-03T15:59:50.807Z,1.40
2019-05-03T16:01:55.351Z,1.03
2019-05-03T16:03:56.827Z,1.20
2019-05-03T16:05:59.437Z,0.97
2019-05-03T16:08:01.969Z,1.40
2019-05-03T16:10:04.696Z,1.60
2019-05-03T16:12:07.123Z,1.57
2019-05-03T16:14:10.504Z,1.10
2019-05-03T16:16:15.004Z,1.07
2019-05-03T16:18:15.762Z,1.23
2019-05-03T16:20:18.310Z,1.50
2019-05-03T16:22:20.906Z,1.93
2019-05-03T16:24:24.954Z,1.23
2019-05-03T16:26:28.653Z,1.10
2019-05-03T16:28:36.935Z,1.20
2019-05-03T16:30:42.467Z,1.00
2019-05-03T16:32:45.015Z,0.90
2019-05-03T16:34:47.652Z,0.90
2019-05-03T16:36:50.191Z,1.13
2019-05-03T16:38:52.735Z,1.07
2019-05-03T16:40:55.696Z,0.93
2019-05-03T16:42:59.175Z,1.20
2019-05-03T16:45:01.824Z,1.20
2019-05-03T16:47:04.892Z,1.30
2019-05-03T16:49:06.988Z,1.37
2019-05-03T16:51:09.783Z,1.40
2019-05-03T16:53:14.776Z,1.30
2019-05-03T16:55:16.389Z,1.10
2019-05-03T16:57:18.429Z,0.87
2019-05-03T16:59:21.776Z,0.90
2019-05-03T17:01:24.521Z,1.23
2019-05-03T17:03:38.198Z,1.00
2019-05-03T17:05:46.836Z,1.02
2019-05-03T17:07:49.398Z,1.10
2019-05-03T17:09:52.887Z,1.27
2019-05-03T17:12:11.088Z,1.03
2019-05-03T17:14:15.502Z,1.43
2019-05-03T17:16:16.270Z,1.23
2019-05-03T17:18:18.872Z,1.40
2019-05-03T17:20:21.415Z,0.90
2019-05-03T17:22:25.215Z,0.90
2019-05-03T17:24:26.517Z,1.30
2019-05-03T17:26:30.232Z,0.97
2019-05-03T17:28:32.812Z,1.00
2019-05-03T17:30:37.426Z,1.17
2019-05-03T17:32:38.007Z,1.27
2019-05-03T17:34:40.646Z,1.27
2019-05-03T17:36:44.951Z,1.10
2019-05-03T17:38:46.004Z,1.40
2019-05-03T17:40:49.468Z,0.97
2019-05-03T17:42:54.730Z,1.27
2019-05-03T17:44:57.386Z,1.10
2019-05-03T17:46:59.944Z,1.03
2019-05-03T17:49:02.559Z,1.07
2019-05-03T17:51:05.282Z,1.03
2019-05-03T17:53:14.738Z,0.80
2019-05-03T17:55:31.231Z,0.80
2019-05-03T17:57:37.299Z,0.93
2019-05-03T17:59:49.771Z,0.97
2019-05-03T18:02:10.789Z,1.00
2019-05-03T18:04:24.855Z,0.93
2019-05-03T18:06:27.907Z,0.80
2019-05-03T18:08:31.111Z,0.98
2019-05-03T18:10:33.756Z,1.03
2019-05-03T18:12:36.402Z,0.97
2019-05-03T18:14:39.007Z,0.87
2019-05-03T18:16:44.284Z,1.23
2019-05-03T18:18:46.379Z,1.33
2019-05-03T18:20:48.971Z,1.60
2019-05-03T18:22:54.495Z,0.70
2019-05-03T18:24:55.833Z,0.97
2019-05-03T18:26:58.407Z,1.10
2019-05-03T18:29:01.015Z,1.20
2019-05-03T18:31:05.338Z,1.00
2019-05-03T18:33:07.123Z,0.80
2019-05-03T18:35:09.776Z,1.10
2019-05-03T18:37:15.096Z,1.10
2019-05-03T18:39:15.638Z,1.00
2019-05-03T18:41:19.017Z,1.23
2019-05-03T18:43:25.707Z,1.30
2019-05-03T18:45:34.982Z,1.10
2019-05-03T18:47:37.563Z,1.10
2019-05-03T18:49:40.575Z,1.10
2019-05-03T18:51:44.707Z,1.00
2019-05-03T18:53:46.826Z,1.10
2019-05-03T18:55:49.527Z,1.33
2019-05-03T18:57:54.680Z,0.83
2019-05-03T18:59:55.652Z,1.00
2019-05-03T19:01:58.371Z,1.30
2019-05-03T19:04:05.203Z,1.50
2019-05-03T19:06:09.382Z,1.00
2019-05-03T19:08:15.645Z,1.27
2019-05-03T19:10:20.184Z,1.13
2019-05-03T19:12:26.407Z,1.13
2019-05-03T19:14:27.861Z,1.33
2019-05-03T19:16:35.024Z,1.37
2019-05-03T19:18:35.750Z,0.87
2019-05-03T19:20:38.298Z,0.90
2019-05-03T19:22:40.847Z,1.03
2019-05-03T19:24:44.482Z,1.33
2019-05-03T19:26:46.000Z,1.27
2019-05-03T19:28:48.825Z,1.10
2019-05-03T19:30:51.397Z,1.20
2019-05-03T19:32:55.611Z,1.10
2019-05-03T19:34:58.363Z,0.90
2019-05-03T19:37:01.983Z,1.62
2019-05-03T19:39:05.038Z,1.27
2019-05-03T19:41:07.478Z,0.90
2019-05-03T19:43:10.082Z,1.63
2019-05-03T19:45:15.066Z,1.50
2019-05-03T19:47:15.790Z,1.50
2019-05-03T19:49:18.114Z,1.50
2019-05-03T19:51:20.920Z,1.20
2019-05-03T19:53:38.445Z,1.27
2019-05-03T19:55:41.382Z,1.47
2019-05-03T19:57:44.960Z,1.50
2019-05-03T19:59:48.113Z,1.50
2019-05-03T20:02:05.639Z,1.10
2019-05-03T20:04:18.878Z,1.20
2019-05-03T20:06:25.246Z,0.90
2019-05-03T20:08:29.329Z,1.20
2019-05-03T20:10:32.414Z,1.53
2019-05-03T20:12:35.381Z,1.20
2019-05-03T20:14:37.799Z,1.27
2019-05-03T20:16:41.232Z,1.00
2019-05-03T20:18:45.412Z,1.03
2019-05-03T20:20:47.324Z,1.20
2019-05-03T20:22:49.966Z,1.73
2019-05-03T20:24:52.784Z,1.30
2019-05-03T20:26:56.893Z,1.80
2019-05-03T20:28:59.534Z,1.20
2019-05-03T20:31:02.086Z,1.20
2019-05-03T20:33:04.652Z,1.53
2019-05-03T20:35:16.196Z,1.70
2019-05-03T20:37:10.518Z,2.10
2019-05-03T20:39:14.846Z,2.10
2019-05-03T20:41:15.768Z,1.90
2019-05-03T20:43:19.121Z,1.50
2019-05-03T20:45:39.409Z,1.57
2019-05-03T20:47:42.033Z,1.50
2019-05-03T20:49:45.139Z,1.73
2019-05-03T20:51:51.027Z,1.67
2019-05-03T20:53:50.558Z,1.53
2019-05-03T20:55:54.562Z,2.03
2019-05-03T20:57:56.451Z,1.70
2019-05-03T20:59:58.999Z,1.57
2019-05-03T21:02:01.562Z,1.60
2019-05-03T21:04:04.826Z,1.50
2019-05-03T21:06:06.751Z,1.20
2019-05-03T21:08:09.322Z,1.53
2019-05-03T21:10:12.099Z,1.20
2019-05-03T21:12:14.928Z,1.50
2019-05-03T21:14:17.198Z,1.50
2019-05-03T21:16:22.774Z,2.33
2019-05-03T21:18:36.150Z,2.07
2019-05-03T21:20:48.607Z,1.23
2019-05-03T21:22:51.174Z,1.70
2019-05-03T21:25:11.450Z,1.50
2019-05-03T21:27:14.065Z,1.67
2019-05-03T21:29:16.609Z,1.43
2019-05-03T21:31:20.122Z,1.90
2019-05-03T21:33:22.678Z,2.60
2019-05-03T21:35:38.302Z,1.83
2019-05-03T21:37:28.870Z,1.37
2019-05-03T21:39:31.423Z,1.63
2019-05-03T21:41:35.342Z,1.70
2019-05-03T21:43:36.953Z,1.20
2019-05-03T21:45:40.531Z,1.37
2019-05-03T21:47:46.471Z,1.50
2019-05-03T21:49:49.035Z,1.33
2019-05-03T21:51:53.591Z,1.40
2019-05-03T21:53:54.162Z,1.20
2019-05-03T21:55:56.775Z,1.47
2019-05-03T21:57:59.299Z,1.63
2019-05-03T22:00:01.850Z,1.80
2019-05-03T22:02:05.132Z,1.77
2019-05-03T22:04:07.266Z,1.70
2019-05-03T22:06:10.130Z,1.50
2019-05-03T22:08:12.695Z,2.23
2019-05-03T22:10:15.239Z,1.83
2019-05-03T22:12:18.853Z,1.20
2019-05-03T22:14:24.502Z,1.25
2019-05-03T22:16:27.751Z,1.43
2019-05-03T22:18:31.063Z,1.17
2019-05-03T22:20:45.461Z,1.50
2019-05-03T22:22:50.536Z,1.13
2019-05-03T22:24:55.329Z,2.40
2019-05-03T22:27:00.429Z,1.90
2019-05-03T22:29:03.006Z,2.97
2019-05-03T22:31:06.839Z,2.20
2019-05-03T22:33:08.158Z,1.73
2019-05-03T22:35:10.704Z,1.60
2019-05-03T22:37:14.321Z,2.40
2019-05-03T22:39:16.015Z,1.47
2019-05-03T22:41:18.554Z,1.87
2019-05-03T22:43:21.105Z,2.10
2019-05-03T22:45:23.699Z,1.30
2019-05-03T22:47:26.266Z,1.90
2019-05-03T22:49:28.942Z,1.50
2019-05-03T22:51:34.479Z,2.10
2019-05-03T22:53:35.023Z,1.87
2019-05-03T22:55:37.654Z,2.00
2019-05-03T22:57:40.526Z,2.23
2019-05-03T22:59:44.833Z,2.03
2019-05-03T23:01:45.996Z,2.47
2019-05-03T23:03:48.386Z,3.33
2019-05-03T23:05:50.975Z,1.77
2019-05-03T23:07:55.223Z,1.87
2019-05-03T23:09:56.218Z,1.80
2019-05-03T23:11:58.894Z,1.80
2019-05-03T23:14:01.458Z,2.30
2019-05-03T23:16:05.170Z,2.83
2019-05-03T23:18:06.571Z,1.93
2019-05-03T23:20:25.465Z,2.33
2019-05-03T23:22:28.212Z,1.97
2019-05-03T23:24:30.814Z,2.13
2019-05-03T23:26:34.861Z,1.60
2019-05-03T23:28:36.882Z,1.77
2019-05-03T23:30:39.453Z,2.10
2019-05-03T23:32:42.208Z,2.20
2019-05-03T23:34:46.386Z,1.53
2019-05-03T23:36:48.095Z,2.30
2019-05-03T23:38:50.675Z,1.67
2019-05-03T23:40:54.917Z,1.93
2019-05-03T23:42:56.054Z,1.97
2019-05-03T23:44:58.598Z,1.90
2019-05-03T23:47:16.710Z,1.40
2019-05-03T23:49:19.844Z,2.47
2019-05-03T23:51:27.983Z,2.03
2019-05-03T23:53:32.079Z,2.60
2019-05-03T23:55:38.146Z,2.50
2019-05-03T23:57:41.496Z,2.50
2019-05-03T23:59:44.949Z,2.30
